createdAt,value
2019-05-23T00:00:42.939Z,100.00
2019-05-23T00:03:13.221Z,100.00
2019-05-23T00:05:43.447Z,100.00
2019-05-23T00:08:13.730Z,100.00
2019-05-23T00:10:46.602Z,100.00
2019-05-23T00:13:16.640Z,100.00
2019-05-23T00:15:47.135Z,100.00
2019-05-23T00:18:21.088Z,100.00
2019-05-23T00:20:49.647Z,100.00
2019-05-23T00:23:19.411Z,100.00
2019-05-23T00:25:49.481Z,100.00
2019-05-23T00:28:17.919Z,100.00
2019-05-23T00:30:50.910Z,100.00
2019-05-23T00:33:21.625Z,100.00
2019-05-23T00:35:51.462Z,100.00
2019-05-23T00:38:21.274Z,100.00
2019-05-23T00:40:50.662Z,100.00
2019-05-23T00:43:19.916Z,100.00
2019-05-23T00:45:48.901Z,100.00
2019-05-23T00:48:18.278Z,100.00
2019-05-23T00:50:48.812Z,100.00
2019-05-23T00:53:17.288Z,100.00
2019-05-23T00:55:47.339Z,100.00
2019-05-23T00:58:16.791Z,100.00
2019-05-23T01:00:45.620Z,100.00
2019-05-23T01:03:16.466Z,100.00
2019-05-23T01:05:44.882Z,100.00
2019-05-23T01:08:13.977Z,100.00
2019-05-23T01:10:44.019Z,100.00
2019-05-23T01:13:15.137Z,100.00
2019-05-23T01:15:44.287Z,100.00
2019-05-23T01:18:13.414Z,100.00
2019-05-23T01:21:01.686Z,100.00
2019-05-23T01:23:38.070Z,100.00
2019-05-23T01:26:06.571Z,100.00
2019-05-23T01:28:35.110Z,100.00
2019-05-23T01:31:05.240Z,100.00
2019-05-23T01:33:34.608Z,100.00
2019-05-23T01:36:04.064Z,100.00
2019-05-23T01:38:33.035Z,100.00
2019-05-23T01:41:01.795Z,100.00
2019-05-23T01:43:32.148Z,100.00
2019-05-23T01:46:00.855Z,100.00
2019-05-23T01:48:30.008Z,100.00
2019-05-23T01:50:59.010Z,100.00
2019-05-23T01:53:27.650Z,100.00
2019-05-23T01:55:56.136Z,100.00
2019-05-23T01:58:24.683Z,100.00
2019-05-23T02:00:53.438Z,100.00
2019-05-23T02:03:22.459Z,100.00
2019-05-23T02:05:50.943Z,100.00
2019-05-23T02:08:19.358Z,100.00
2019-05-23T02:10:48.809Z,100.00
2019-05-23T02:13:17.603Z,100.00
2019-05-23T02:15:46.776Z,100.00
2019-05-23T02:18:15.649Z,100.00
2019-05-23T02:20:45.808Z,100.00
2019-05-23T02:23:14.448Z,100.00
2019-05-23T02:25:42.968Z,100.00
2019-05-23T02:28:12.385Z,100.00
2019-05-23T02:30:41.058Z,100.00
2019-05-23T02:33:10.204Z,100.00
2019-05-23T02:35:40.578Z,100.00
2019-05-23T02:38:13.489Z,100.00
2019-05-23T02:40:46.806Z,100.00
2019-05-23T02:43:17.996Z,100.00
2019-05-23T02:45:53.088Z,100.00
2019-05-23T02:48:24.198Z,100.00
2019-05-23T02:50:59.875Z,100.00
2019-05-23T02:53:31.340Z,100.00
2019-05-23T02:56:03.761Z,100.00
2019-05-23T02:58:36.584Z,100.00
2019-05-23T03:01:11.101Z,100.00
2019-05-23T03:03:39.495Z,100.00
2019-05-23T03:06:12.888Z,100.00
2019-05-23T03:08:41.934Z,100.00
2019-05-23T03:11:19.452Z,100.00
2019-05-23T03:13:48.104Z,100.00
2019-05-23T03:16:19.352Z,100.00
2019-05-23T03:18:51.226Z,100.00
2019-05-23T03:21:19.646Z,100.00
2019-05-23T03:23:49.312Z,100.00
2019-05-23T03:26:39.858Z,100.00
2019-05-23T03:29:08.765Z,100.00
2019-05-23T03:31:40.411Z,100.00
2019-05-23T03:34:10.455Z,100.00
2019-05-23T03:36:39.144Z,100.00
2019-05-23T03:39:10.536Z,100.00
2019-05-23T03:41:39.453Z,100.00
2019-05-23T03:44:08.911Z,100.00
2019-05-23T03:46:39.070Z,100.00
2019-05-23T03:49:08.923Z,100.00
2019-05-23T03:51:37.342Z,100.00
2019-05-23T03:54:05.839Z,100.00
2019-05-23T03:56:35.140Z,100.00
2019-05-23T03:59:04.712Z,100.00
2019-05-23T04:01:47.167Z,100.00
2019-05-23T04:04:06.345Z,100.00
2019-05-23T04:06:34.796Z,100.00
2019-05-23T04:09:06.193Z,100.00
2019-05-23T04:11:34.673Z,100.00
2019-05-23T04:14:03.517Z,100.00
2019-05-23T04:16:32.349Z,100.00
2019-05-23T04:19:02.859Z,100.00
2019-05-23T04:21:31.458Z,100.00
2019-05-23T04:23:59.940Z,100.00
2019-05-23T04:26:28.516Z,100.00
2019-05-23T04:28:58.082Z,100.00
2019-05-23T04:31:26.483Z,100.00
2019-05-23T04:33:54.898Z,100.00
2019-05-23T04:36:23.304Z,100.00
2019-05-23T04:38:51.909Z,100.00
2019-05-23T04:41:20.353Z,100.00
2019-05-23T04:43:48.913Z,100.00
2019-05-23T04:46:17.461Z,100.00
2019-05-23T04:48:45.876Z,100.00
2019-05-23T04:51:15.013Z,100.00
2019-05-23T04:53:43.502Z,100.00
2019-05-23T04:56:12.471Z,100.00
2019-05-23T04:58:41.159Z,100.00
2019-05-23T05:01:10.685Z,100.00
2019-05-23T05:03:39.816Z,100.00
2019-05-23T05:06:08.288Z,100.00
2019-05-23T05:08:36.750Z,100.00
2019-05-23T05:11:05.418Z,99.80
2019-05-23T05:13:34.421Z,99.65
2019-05-23T05:16:02.818Z,99.71
2019-05-23T05:18:31.302Z,99.62
2019-05-23T05:20:59.706Z,99.30
2019-05-23T05:23:28.115Z,99.22
2019-05-23T05:25:56.513Z,99.12
2019-05-23T05:28:24.928Z,98.97
2019-05-23T05:30:53.493Z,98.68
2019-05-23T05:33:22.074Z,98.76
2019-05-23T05:35:50.545Z,98.73
2019-05-23T05:38:19.531Z,98.59
2019-05-23T05:40:47.998Z,98.69
2019-05-23T05:43:17.091Z,98.21
2019-05-23T05:45:45.486Z,98.16
2019-05-23T05:48:13.939Z,98.24
2019-05-23T05:50:42.883Z,97.66
2019-05-23T05:53:11.469Z,97.45
2019-05-23T05:55:39.866Z,97.10
2019-05-23T05:58:08.297Z,96.47
2019-05-23T06:00:46.946Z,96.28
2019-05-23T06:03:15.641Z,95.64
2019-05-23T06:06:00.558Z,95.28
2019-05-23T06:08:30.898Z,94.83
2019-05-23T06:10:59.349Z,93.80
2019-05-23T06:13:28.125Z,93.27
2019-05-23T06:15:56.697Z,92.90
2019-05-23T06:18:25.215Z,92.37
2019-05-23T06:20:54.192Z,89.87
2019-05-23T06:23:23.021Z,88.93
2019-05-23T06:25:51.504Z,87.64
2019-05-23T06:28:20.201Z,86.70
2019-05-23T06:30:50.709Z,84.85
2019-05-23T06:33:23.738Z,84.55
2019-05-23T06:35:50.044Z,83.33
2019-05-23T06:38:18.720Z,79.74
2019-05-23T06:40:47.860Z,78.82
2019-05-23T06:43:16.405Z,76.73
2019-05-23T06:45:45.761Z,72.42
2019-05-23T06:48:15.417Z,71.91
2019-05-23T06:50:44.105Z,69.86
2019-05-23T06:53:12.608Z,71.00
2019-05-23T06:55:41.019Z,68.86
2019-05-23T06:58:09.413Z,65.38
2019-05-23T07:00:38.237Z,63.93
2019-05-23T07:03:07.279Z,63.54
2019-05-23T07:05:36.813Z,62.91
2019-05-23T07:08:06.758Z,62.67
2019-05-23T07:10:35.421Z,61.10
2019-05-23T07:13:04.544Z,60.12
2019-05-23T07:15:33.201Z,59.42
2019-05-23T07:18:02.163Z,58.87
2019-05-23T07:20:31.032Z,57.27
2019-05-23T07:22:59.676Z,55.35
2019-05-23T07:25:28.262Z,53.26
2019-05-23T07:27:56.740Z,53.81
2019-05-23T07:30:27.390Z,52.79
2019-05-23T07:32:55.959Z,53.29
2019-05-23T07:35:24.540Z,53.82
2019-05-23T07:37:52.923Z,53.76
2019-05-23T07:40:23.621Z,55.44
2019-05-23T07:42:52.112Z,50.99
2019-05-23T07:45:27.871Z,52.99
2019-05-23T07:47:56.287Z,52.68
2019-05-23T07:50:24.692Z,51.73
2019-05-23T07:52:54.986Z,49.90
2019-05-23T07:55:27.887Z,49.19
2019-05-23T07:57:56.388Z,49.50
2019-05-23T08:00:35.269Z,49.36
2019-05-23T08:03:05.284Z,49.23
2019-05-23T08:05:34.430Z,47.88
2019-05-23T08:08:03.463Z,48.20
2019-05-23T08:10:34.011Z,46.93
2019-05-23T08:13:02.479Z,46.38
2019-05-23T08:15:31.231Z,46.56
2019-05-23T08:17:59.925Z,46.57
2019-05-23T08:20:28.398Z,45.64
2019-05-23T08:22:56.974Z,46.13
2019-05-23T08:25:25.395Z,43.14
2019-05-23T08:27:53.797Z,43.65
2019-05-23T08:30:22.447Z,43.94
2019-05-23T08:32:51.192Z,42.28
2019-05-23T08:35:20.017Z,42.22
2019-05-23T08:37:48.606Z,41.05
2019-05-23T08:40:18.851Z,41.32
2019-05-23T08:42:47.258Z,41.56
2019-05-23T08:45:17.687Z,41.83
2019-05-23T08:47:46.112Z,41.91
2019-05-23T08:50:16.950Z,37.93
2019-05-23T08:52:45.585Z,37.69
2019-05-23T08:55:17.271Z,36.69
2019-05-23T08:57:45.731Z,38.17
2019-05-23T09:00:15.097Z,37.25
2019-05-23T09:02:43.841Z,38.19
2019-05-23T09:05:12.523Z,37.23
2019-05-23T09:07:41.313Z,34.75
2019-05-23T09:10:09.969Z,35.45
2019-05-23T09:12:38.560Z,35.03
2019-05-23T09:15:09.849Z,33.24
2019-05-23T09:17:52.507Z,35.33
2019-05-23T09:20:09.275Z,35.25
2019-05-23T09:22:38.913Z,34.15
2019-05-23T09:25:08.460Z,34.52
2019-05-23T09:27:37.423Z,34.53
2019-05-23T09:30:08.331Z,34.66
2019-05-23T09:32:36.812Z,34.24
2019-05-23T09:35:20.210Z,35.09
2019-05-23T09:37:37.937Z,33.28
2019-05-23T09:40:07.620Z,34.16
2019-05-23T09:42:36.114Z,34.43
2019-05-23T09:45:06.172Z,33.84
2019-05-23T09:47:34.666Z,32.68
2019-05-23T09:50:05.586Z,31.97
2019-05-23T09:52:34.269Z,31.50
2019-05-23T09:55:02.689Z,30.40
2019-05-23T09:57:31.228Z,31.41
2019-05-23T09:59:59.599Z,33.18
2019-05-23T10:02:28.092Z,32.08
2019-05-23T10:04:57.145Z,31.62
2019-05-23T10:07:26.437Z,30.92
2019-05-23T10:09:55.013Z,31.56
2019-05-23T10:12:23.598Z,33.08
2019-05-23T10:14:52.071Z,32.85
2019-05-23T10:17:20.496Z,34.50
2019-05-23T10:19:48.902Z,31.43
2019-05-23T10:22:17.599Z,32.43
2019-05-23T10:24:46.035Z,32.61
2019-05-23T10:27:16.099Z,32.15
2019-05-23T10:29:44.509Z,30.22
2019-05-23T10:32:13.702Z,33.18
2019-05-23T10:34:42.223Z,33.06
2019-05-23T10:37:12.237Z,31.89
2019-05-23T10:39:43.712Z,32.46
2019-05-23T10:42:12.503Z,32.89
2019-05-23T10:44:44.788Z,33.43
2019-05-23T10:47:11.125Z,31.93
2019-05-23T10:49:39.532Z,35.21
2019-05-23T10:52:07.950Z,34.99
2019-05-23T10:54:36.365Z,35.35
2019-05-23T10:57:05.017Z,33.55
2019-05-23T10:59:33.550Z,33.67
2019-05-23T11:02:02.002Z,34.47
2019-05-23T11:04:30.420Z,34.78
2019-05-23T11:06:58.994Z,34.47
2019-05-23T11:09:37.303Z,34.65
2019-05-23T11:11:57.881Z,34.93
2019-05-23T11:14:26.540Z,33.92
2019-05-23T11:16:55.398Z,32.22
2019-05-23T11:19:23.874Z,34.68
2019-05-23T11:21:52.296Z,33.76
2019-05-23T11:24:20.913Z,33.15
2019-05-23T11:26:49.563Z,33.59
2019-05-23T11:29:18.143Z,31.58
2019-05-23T11:31:46.678Z,32.91
2019-05-23T11:34:15.101Z,34.61
2019-05-23T11:36:43.569Z,34.92
2019-05-23T11:39:13.263Z,33.30
2019-05-23T11:41:41.664Z,33.43
2019-05-23T11:44:10.184Z,35.56
2019-05-23T11:46:39.557Z,34.42
2019-05-23T11:49:08.425Z,33.57
2019-05-23T11:51:37.580Z,34.13
2019-05-23T11:54:09.195Z,34.96
2019-05-23T11:56:36.964Z,33.34
2019-05-23T11:59:05.664Z,33.54
2019-05-23T12:01:41.810Z,32.65
2019-05-23T12:04:14.692Z,32.55
2019-05-23T12:06:55.181Z,33.71
2019-05-23T12:09:15.224Z,32.35
2019-05-23T12:11:44.038Z,32.04
2019-05-23T12:14:12.443Z,31.72
2019-05-23T12:16:41.700Z,32.44
2019-05-23T12:19:10.505Z,33.01
2019-05-23T12:21:38.906Z,32.97
2019-05-23T12:24:07.597Z,34.74
2019-05-23T12:26:36.893Z,33.54
2019-05-23T12:29:05.435Z,34.22
2019-05-23T12:31:33.845Z,33.52
2019-05-23T12:34:02.270Z,33.50
2019-05-23T12:36:31.350Z,32.86
2019-05-23T12:38:59.780Z,33.25
2019-05-23T12:41:28.183Z,32.07
2019-05-23T12:43:56.618Z,32.47
2019-05-23T12:46:25.031Z,31.98
2019-05-23T12:49:01.011Z,31.98
2019-05-23T12:51:39.715Z,30.38
2019-05-23T12:54:08.410Z,31.42
2019-05-23T12:56:37.030Z,31.42
2019-05-23T12:59:06.096Z,30.77
2019-05-23T13:01:36.281Z,30.08
2019-05-23T13:04:09.920Z,31.92
2019-05-23T13:06:35.443Z,31.03
2019-05-23T13:09:05.393Z,32.69
2019-05-23T13:11:33.878Z,31.70
2019-05-23T13:14:02.400Z,30.96
2019-05-23T13:16:31.168Z,32.62
2019-05-23T13:18:59.663Z,32.47
2019-05-23T13:21:28.498Z,34.65
2019-05-23T13:23:56.919Z,33.89
2019-05-23T13:26:25.701Z,33.17
2019-05-23T13:28:54.147Z,33.38
2019-05-23T13:31:22.550Z,34.22
2019-05-23T13:33:50.964Z,33.39
2019-05-23T13:36:19.385Z,33.36
2019-05-23T13:38:48.070Z,34.45
2019-05-23T13:41:16.706Z,34.45
2019-05-23T13:43:45.357Z,35.05
2019-05-23T13:46:13.996Z,35.51
2019-05-23T13:48:42.551Z,35.51
2019-05-23T13:51:10.944Z,35.52
2019-05-23T13:53:39.431Z,37.06
2019-05-23T13:56:08.276Z,37.06
2019-05-23T13:58:36.961Z,36.71
2019-05-23T14:01:09.234Z,37.20
2019-05-23T14:03:36.054Z,37.29
2019-05-23T14:06:04.993Z,35.69
2019-05-23T14:08:33.391Z,34.92
2019-05-23T14:11:01.816Z,36.15
2019-05-23T14:17:23.676Z,39.48
2019-05-23T14:19:52.152Z,39.48
2019-05-23T14:22:21.969Z,36.73
2019-05-23T14:24:50.391Z,36.90
2019-05-23T14:27:20.931Z,36.90
2019-05-23T14:29:49.465Z,36.78
2019-05-23T14:32:22.135Z,36.42
2019-05-23T14:34:52.228Z,37.91
2019-05-23T14:37:22.496Z,37.03
2019-05-23T14:39:52.116Z,37.03
2019-05-23T14:42:22.164Z,38.31
2019-05-23T14:44:52.171Z,39.39
2019-05-23T14:47:25.135Z,39.22
2019-05-23T14:49:55.288Z,38.97
2019-05-23T14:52:25.315Z,39.37
2019-05-23T14:54:56.177Z,40.70
2019-05-23T14:57:24.621Z,40.70
2019-05-23T14:59:53.107Z,39.85
2019-05-23T15:02:21.733Z,40.94
2019-05-23T15:04:50.144Z,39.99
2019-05-23T15:07:18.550Z,42.27
2019-05-23T15:09:46.976Z,41.86
2019-05-23T15:12:15.567Z,42.11
2019-05-23T15:14:44.092Z,40.42
2019-05-23T15:17:12.609Z,39.53
2019-05-23T15:19:45.146Z,38.15
2019-05-23T15:22:11.235Z,38.55
2019-05-23T15:24:39.866Z,37.46
2019-05-23T15:27:08.645Z,40.81
2019-05-23T15:29:37.046Z,38.88
2019-05-23T15:32:05.535Z,38.12
2019-05-23T15:34:35.221Z,37.80
2019-05-23T15:37:04.007Z,38.36
2019-05-23T15:39:32.511Z,41.42
2019-05-23T15:42:00.963Z,42.24
2019-05-23T15:44:30.369Z,41.29
2019-05-23T15:46:59.133Z,43.28
2019-05-23T15:49:28.277Z,41.89
2019-05-23T15:51:58.512Z,41.75
2019-05-23T15:54:37.353Z,44.08
2019-05-23T15:57:13.186Z,43.78
2019-05-23T15:59:43.231Z,43.78
2019-05-23T16:02:21.963Z,42.79
2019-05-23T16:04:51.352Z,45.17
2019-05-23T16:07:20.444Z,43.05
2019-05-23T16:09:49.024Z,43.05
2019-05-23T16:12:17.815Z,44.26
2019-05-23T16:18:08.654Z,43.29
2019-05-23T16:20:37.339Z,43.90
2019-05-23T16:23:05.752Z,45.25
2019-05-23T16:25:34.236Z,45.25
2019-05-23T16:28:02.674Z,45.01
2019-05-23T16:30:31.180Z,43.28
2019-05-23T16:32:59.604Z,43.92
2019-05-23T16:35:28.168Z,42.77
2019-05-23T16:37:56.749Z,42.47
2019-05-23T16:40:25.557Z,42.99
2019-05-23T16:42:54.054Z,40.62
2019-05-23T16:45:22.482Z,41.27
2019-05-23T16:47:51.082Z,40.00
2019-05-23T16:50:19.479Z,40.86
2019-05-23T16:52:47.969Z,42.09
2019-05-23T16:55:18.108Z,42.61
2019-05-23T16:57:53.933Z,42.07
2019-05-23T17:00:39.304Z,42.70
2019-05-23T17:03:12.365Z,43.03
2019-05-23T17:05:54.878Z,41.41
2019-05-23T17:08:36.804Z,43.34
2019-05-23T17:11:23.223Z,44.59
2019-05-23T17:13:56.277Z,41.97
2019-05-23T17:16:26.336Z,41.96
2019-05-23T17:18:59.331Z,41.79
2019-05-23T17:21:44.297Z,41.22
2019-05-23T17:24:17.234Z,40.57
2019-05-23T17:26:59.319Z,42.29
2019-05-23T17:29:35.207Z,40.82
2019-05-23T17:32:05.338Z,40.82
2019-05-23T17:34:33.738Z,40.64
2019-05-23T17:37:02.623Z,41.39
2019-05-23T17:39:31.311Z,41.63
2019-05-23T17:42:01.411Z,40.72
2019-05-23T17:44:29.789Z,41.96
2019-05-23T17:46:58.208Z,41.11
2019-05-23T17:49:26.612Z,42.50
2019-05-23T17:51:55.396Z,43.65
2019-05-23T17:54:24.103Z,44.93
2019-05-23T17:56:52.579Z,46.12
2019-05-23T17:59:20.972Z,47.35
2019-05-23T18:01:49.722Z,49.07
2019-05-23T18:04:18.396Z,47.67
2019-05-23T18:06:46.814Z,49.87
2019-05-23T18:09:16.265Z,49.87
2019-05-23T18:11:46.324Z,50.03
2019-05-23T18:14:15.462Z,50.85
2019-05-23T18:16:44.507Z,53.70
2019-05-23T18:19:14.608Z,52.16
2019-05-23T18:21:43.296Z,52.16
2019-05-23T18:24:13.726Z,53.40
2019-05-23T18:26:42.127Z,54.48
2019-05-23T18:29:10.545Z,56.06
2019-05-23T18:31:41.110Z,55.32
2019-05-23T18:34:11.278Z,56.17
2019-05-23T18:36:40.491Z,56.92
2019-05-23T18:39:10.142Z,56.87
2019-05-23T18:41:38.907Z,58.12
2019-05-23T18:44:07.403Z,58.44
2019-05-23T18:46:40.051Z,60.00
2019-05-23T18:49:09.941Z,60.17
2019-05-23T18:51:39.225Z,61.26
2019-05-23T18:54:07.826Z,61.53
2019-05-23T18:56:36.176Z,62.08
2019-05-23T18:59:05.891Z,63.53
2019-05-23T19:01:34.402Z,63.57
2019-05-23T19:04:02.799Z,63.54
2019-05-23T19:06:31.221Z,64.45
2019-05-23T19:09:00.267Z,64.67
2019-05-23T19:11:29.307Z,64.54
2019-05-23T19:13:57.738Z,64.75
2019-05-23T19:16:26.467Z,65.25
2019-05-23T19:18:54.879Z,65.23
2019-05-23T19:21:23.359Z,66.91
2019-05-23T19:23:51.779Z,65.17
2019-05-23T19:26:20.254Z,65.96
2019-05-23T19:28:48.678Z,66.20
2019-05-23T19:31:17.519Z,66.79
2019-05-23T19:33:46.949Z,67.29
2019-05-23T19:36:16.564Z,67.85
2019-05-23T19:38:45.094Z,68.18
2019-05-23T19:41:13.642Z,67.86
2019-05-23T19:43:42.460Z,68.04
2019-05-23T19:46:11.880Z,68.51
2019-05-23T19:48:41.132Z,68.52
2019-05-23T19:51:10.177Z,68.72
2019-05-23T19:53:38.853Z,68.82
2019-05-23T19:56:09.004Z,69.53
2019-05-23T19:58:37.522Z,69.73
2019-05-23T20:01:06.609Z,70.97
2019-05-23T20:03:35.535Z,71.16
2019-05-23T20:06:05.360Z,71.64
2019-05-23T20:08:33.775Z,71.70
2019-05-23T20:11:02.439Z,72.30
2019-05-23T20:13:31.046Z,72.43
2019-05-23T20:15:59.619Z,72.73
2019-05-23T20:18:28.309Z,72.56
2019-05-23T20:20:57.144Z,73.06
2019-05-23T20:23:25.705Z,73.33
2019-05-23T20:25:54.141Z,73.29
2019-05-23T20:28:23.229Z,73.96
2019-05-23T20:30:52.639Z,74.19
2019-05-23T20:33:21.238Z,74.28
2019-05-23T20:35:49.907Z,74.74
2019-05-23T20:38:18.965Z,74.81
2019-05-23T20:40:47.368Z,75.02
2019-05-23T20:43:16.278Z,75.54
2019-05-23T20:45:44.791Z,75.92
2019-05-23T20:48:13.199Z,75.98
2019-05-23T20:50:41.615Z,76.65
2019-05-23T20:53:10.091Z,76.99
2019-05-23T20:55:38.578Z,77.09
2019-05-23T20:58:07.121Z,76.84
2019-05-23T21:00:48.874Z,77.27
2019-05-23T21:03:17.561Z,77.28
2019-05-23T21:05:46.142Z,77.07
2019-05-23T21:08:14.734Z,77.27
2019-05-23T21:10:46.259Z,77.05
2019-05-23T21:13:14.694Z,77.29
2019-05-23T21:15:43.460Z,77.33
2019-05-23T21:18:12.771Z,77.39
2019-05-23T21:20:41.263Z,77.82
2019-05-23T21:23:10.023Z,78.10
2019-05-23T21:25:40.146Z,78.27
2019-05-23T21:28:08.557Z,78.27
2019-05-23T21:30:36.971Z,78.72
2019-05-23T21:33:05.962Z,78.95
2019-05-23T21:35:34.586Z,78.58
2019-05-23T21:38:03.085Z,78.94
2019-05-23T21:40:37.604Z,79.37
2019-05-23T21:43:06.456Z,79.56
2019-05-23T21:45:34.854Z,79.47
2019-05-23T21:48:03.753Z,79.37
2019-05-23T21:50:32.289Z,79.60
2019-05-23T21:53:00.697Z,79.73
2019-05-23T21:55:40.854Z,79.60
2019-05-23T21:58:11.813Z,79.55
2019-05-23T22:01:02.368Z,79.49
2019-05-23T22:03:32.483Z,79.56
2019-05-23T22:06:01.341Z,79.21
2019-05-23T22:08:29.813Z,78.77
2019-05-23T22:10:58.225Z,78.80
2019-05-23T22:13:26.808Z,78.85
2019-05-23T22:15:56.883Z,79.20
2019-05-23T22:18:25.697Z,78.72
2019-05-23T22:20:54.112Z,78.43
2019-05-23T22:23:22.584Z,78.60
2019-05-23T22:25:51.029Z,78.86
2019-05-23T22:28:19.791Z,78.56
2019-05-23T22:30:48.276Z,78.58
2019-05-23T22:33:18.594Z,79.04
2019-05-23T22:35:47.017Z,79.94
2019-05-23T22:38:15.587Z,80.19
2019-05-23T22:40:44.089Z,80.86
2019-05-23T22:43:20.673Z,82.01
2019-05-23T22:45:42.707Z,81.96
2019-05-23T22:48:11.111Z,82.15
2019-05-23T22:50:39.547Z,82.04
2019-05-23T22:53:07.950Z,82.53
2019-05-23T22:55:36.377Z,82.75
2019-05-23T22:58:06.027Z,82.98
2019-05-23T23:00:36.153Z,83.12
2019-05-23T23:03:04.629Z,82.88
2019-05-23T23:05:33.118Z,82.69
2019-05-23T23:08:01.901Z,82.27
2019-05-23T23:10:30.331Z,81.56
2019-05-23T23:12:58.735Z,80.60
2019-05-23T23:15:28.936Z,79.92
2019-05-23T23:17:57.328Z,80.00
2019-05-23T23:20:25.744Z,79.46
2019-05-23T23:22:54.160Z,79.20
2019-05-23T23:25:22.575Z,78.41
2019-05-23T23:27:50.983Z,78.46
2019-05-23T23:30:22.093Z,78.90
2019-05-23T23:32:50.485Z,79.21
2019-05-23T23:35:18.887Z,79.48
2019-05-23T23:37:47.306Z,80.05
2019-05-23T23:40:15.808Z,80.85
2019-05-23T23:42:44.315Z,80.73
2019-05-23T23:45:30.667Z,81.12
2019-05-23T23:48:16.638Z,81.45
2019-05-23T23:51:02.872Z,81.95
2019-05-23T23:53:49.185Z,82.06
2019-05-23T23:56:35.246Z,82.16
2019-05-23T23:59:02.905Z,82.21
